Time;durP1;ratioP1;P1;durP2;ratioP2;P2;SDS_P1;SDS_P2;PMS_P1;PMS_P2;Temp;Humidity;BMP_temperature;BMP_pressure;BME280_temperature;BME280_humidity;BME280_pressure;Samples;Min_cycle;Max_cycle;Signal;HPM_P1;HPM_P2
2021/06/06 00:02:23;;;;;;;10.32;8.68;;;22.50;57.20;;;;;;5115420;28;20169;-62
2021/06/06 00:04:48;;;;;;;8.85;7.95;;;22.50;57.20;;;;;;5115133;28;20188;-62
2021/06/06 00:07:14;;;;;;;9.90;8.90;;;22.50;57.30;;;;;;5114741;28;20173;-62
2021/06/06 00:09:39;;;;;;;9.18;7.80;;;22.50;57.30;;;;;;5114784;28;20173;-62
2021/06/06 00:12:05;;;;;;;9.30;8.15;;;22.50;57.30;;;;;;5115220;28;20688;-61
2021/06/06 00:14:32;;;;;;;9.32;7.95;;;22.40;57.30;;;;;;5113904;28;20539;-62
2021/06/06 00:16:59;;;;;;;10.25;7.75;;;22.40;57.30;;;;;;5115286;28;20189;-62
2021/06/06 00:19:25;;;;;;;8.50;7.63;;;22.40;57.30;;;;;;5114454;28;20181;-62
2021/06/06 00:21:51;;;;;;;7.50;6.80;;;22.40;57.30;;;;;;5114768;28;20226;-62
2021/06/06 00:24:19;;;;;;;9.40;8.50;;;22.40;57.30;;;;;;5115180;28;20597;-62
2021/06/06 00:26:44;;;;;;;8.40;7.60;;;22.40;57.30;;;;;;5114123;28;20177;-62
2021/06/06 00:29:10;;;;;;;9.43;8.43;;;22.40;57.30;;;;;;5114868;28;20252;-62
2021/06/06 00:31:38;;;;;;;9.43;8.18;;;22.40;57.30;;;;;;5114613;28;20169;-62
2021/06/06 00:34:04;;;;;;;8.43;7.53;;;22.40;57.30;;;;;;5114151;28;20260;-62
2021/06/06 00:36:30;;;;;;;10.13;7.70;;;22.40;57.30;;;;;;5114752;28;20300;-62
2021/06/06 00:38:55;;;;;;;8.35;7.55;;;22.40;57.20;;;;;;5114682;28;20222;-62
2021/06/06 00:41:22;;;;;;;9.55;7.70;;;22.40;57.20;;;;;;5114336;28;20173;-62
2021/06/06 00:43:47;;;;;;;9.18;8.25;;;22.40;57.30;;;;;;5112890;28;20173;-62
2021/06/06 00:46:14;;;;;;;8.52;7.55;;;22.30;57.20;;;;;;5114572;28;20176;-62
2021/06/06 00:48:40;;;;;;;8.80;7.60;;;22.30;57.30;;;;;;5113761;28;20221;-63
2021/06/06 00:51:40;;;;;;;8.75;7.13;;;22.40;57.40;;;;;;5114382;28;20192;-61
2021/06/06 00:54:12;;;;;;;8.55;6.88;;;22.40;57.50;;;;;;5093168;28;20177;-61
2021/06/06 00:56:37;;;;;;;8.00;7.10;;;22.40;57.30;;;;;;5112288;28;20208;-62
2021/06/06 00:59:03;;;;;;;8.65;7.30;;;22.40;57.40;;;;;;5113013;28;20230;-62
2021/06/06 01:01:28;;;;;;;9.27;7.22;;;22.40;57.30;;;;;;5113243;28;20173;-62
2021/06/06 01:03:55;;;;;;;8.70;7.10;;;22.40;57.40;;;;;;5113241;28;20192;-63
2021/06/06 01:06:30;;;;;;;8.55;6.90;;;22.40;57.40;;;;;;5114414;28;20204;-60
2021/06/06 01:08:57;;;;;;;8.60;7.20;;;22.40;57.40;;;;;;5113587;28;20175;-61
2021/06/06 01:11:37;;;;;;;9.18;7.22;;;22.40;57.30;;;;;;5112828;28;20187;-61
2021/06/06 01:14:13;;;;;;;9.13;7.43;;;22.40;57.30;;;;;;5113012;28;20180;-61
2021/06/06 01:16:44;;;;;;;7.18;6.22;;;22.40;57.30;;;;;;5113009;28;20229;-62
2021/06/06 01:19:31;;;;;;;7.65;6.93;;;22.40;57.30;;;;;;5112636;28;20318;-62
2021/06/06 01:22:22;;;;;;;8.85;7.25;;;22.40;57.30;;;;;;5112487;28;20177;-62
2021/06/06 01:24:53;;;;;;;11.02;7.57;;;22.40;57.30;;;;;;5111586;28;20582;-62
2021/06/06 01:27:20;;;;;;;8.13;6.70;;;22.40;57.40;;;;;;5112760;28;20177;-62
2021/06/06 01:30:18;;;;;;;7.53;6.72;;;22.40;57.40;;;;;;5112915;28;20200;-62
2021/06/06 01:33:01;;;;;;;7.35;6.60;;;22.40;57.40;;;;;;5111869;28;20179;-62
2021/06/06 01:35:38;;;;;;;7.72;6.95;;;22.40;57.50;;;;;;5112525;28;20193;-62
2021/06/06 01:38:09;;;;;;;7.78;6.97;;;22.30;57.40;;;;;;5112017;28;20181;-62
2021/06/06 01:40:35;;;;;;;8.68;7.10;;;22.30;57.50;;;;;;5111836;28;20181;-62
2021/06/06 01:43:03;;;;;;;7.43;6.60;;;22.30;57.50;;;;;;5112364;28;20256;-62
2021/06/06 01:45:34;;;;;;;8.60;6.45;;;22.30;57.50;;;;;;5112886;28;20173;-62
2021/06/06 01:48:02;;;;;;;8.35;6.57;;;22.30;57.50;;;;;;5112440;28;20174;-62
2021/06/06 01:50:34;;;;;;;8.05;6.78;;;22.30;57.50;;;;;;5112389;28;20208;-62
2021/06/06 01:53:00;;;;;;;7.75;6.65;;;22.30;57.50;;;;;;5111567;28;20177;-62
2021/06/06 01:55:29;;;;;;;7.10;6.00;;;22.30;58.10;;;;;;5112092;28;20204;-62
2021/06/06 01:57:55;;;;;;;7.90;6.35;;;22.20;57.50;;;;;;5094056;28;20173;-62
2021/06/06 02:00:27;;;;;;;7.68;6.28;;;22.30;57.50;;;;;;5113241;28;20192;-62
2021/06/06 02:02:53;;;;;;;8.10;6.40;;;22.30;57.50;;;;;;5113209;28;20185;-62
2021/06/06 02:05:18;;;;;;;7.38;6.47;;;22.20;57.50;;;;;;5112737;28;20177;-62
2021/06/06 02:07:45;;;;;;;7.20;6.50;;;22.20;57.50;;;;;;5111346;28;20618;-62
2021/06/06 02:10:30;;;;;;;7.78;6.57;;;22.20;57.40;;;;;;5112057;28;20173;-62
2021/06/06 02:13:11;;;;;;;7.22;6.53;;;22.20;57.50;;;;;;5111638;28;20222;-62
2021/06/06 02:15:37;;;;;;;7.47;5.97;;;22.20;57.50;;;;;;5111138;28;20228;-62
2021/06/06 02:18:03;;;;;;;6.93;6.22;;;22.20;57.50;;;;;;5112984;28;20269;-62
2021/06/06 02:20:31;;;;;;;6.40;5.80;;;22.20;57.50;;;;;;5111169;28;20286;-62
2021/06/06 02:22:56;;;;;;;7.40;6.63;;;22.20;57.50;;;;;;5112834;28;20181;-61
2021/06/06 02:25:22;;;;;;;7.53;6.53;;;22.20;57.40;;;;;;5111915;28;20229;-62
2021/06/06 02:27:58;;;;;;;7.18;6.45;;;22.20;57.50;;;;;;5111792;28;20602;-62
2021/06/06 02:30:42;;;;;;;7.22;5.90;;;22.20;57.50;;;;;;5111648;28;20216;-62
2021/06/06 02:33:24;;;;;;;7.18;6.00;;;22.10;57.40;;;;;;5115487;28;20181;-62
2021/06/06 02:35:54;;;;;;;5.88;5.35;;;22.10;57.40;;;;;;5116528;28;20796;-62
2021/06/06 02:38:22;;;;;;;7.20;6.05;;;22.10;57.40;;;;;;5115966;28;20218;-62
2021/06/06 02:41:12;;;;;;;8.10;6.03;;;22.20;57.50;;;;;;5114893;28;20208;-63
2021/06/06 02:44:05;;;;;;;8.43;6.78;;;22.10;57.40;;;;;;5115785;28;20177;-62
2021/06/06 02:46:31;;;;;;;6.95;6.03;;;22.10;57.50;;;;;;5093272;28;20181;-63
2021/06/06 02:49:00;;;;;;;6.85;6.15;;;22.10;57.40;;;;;;5114904;28;20180;-62
2021/06/06 02:51:26;;;;;;;7.35;6.60;;;22.10;57.50;;;;;;5115609;28;20226;-62
2021/06/06 02:54:05;;;;;;;6.53;5.90;;;22.10;57.40;;;;;;5116306;28;20173;-62
2021/06/06 02:56:42;;;;;;;9.55;6.70;;;22.10;57.50;;;;;;5114476;28;20678;-62
2021/06/06 02:59:25;;;;;;;7.38;6.22;;;22.10;57.50;;;;;;5115419;28;20177;-62
2021/06/06 03:01:56;;;;;;;7.07;6.32;;;22.10;57.50;;;;;;5114443;28;20216;-63
2021/06/06 03:04:24;;;;;;;6.43;5.75;;;22.10;57.60;;;;;;5114957;28;20219;-62
2021/06/06 03:06:54;;;;;;;7.22;6.53;;;22.10;57.50;;;;;;5116236;28;20177;-62
2021/06/06 03:09:20;;;;;;;6.45;5.85;;;22.10;57.50;;;;;;5115177;28;20254;-62
2021/06/06 03:11:46;;;;;;;6.97;6.07;;;22.10;57.50;;;;;;5114584;28;20181;-62
2021/06/06 03:14:17;;;;;;;6.00;5.40;;;22.10;57.50;;;;;;5115225;28;20173;-62
2021/06/06 03:17:00;;;;;;;6.68;5.88;;;22.10;57.50;;;;;;5113765;28;20268;-62
2021/06/06 03:19:27;;;;;;;6.78;5.78;;;22.10;57.50;;;;;;5115234;28;20184;-62
2021/06/06 03:21:53;;;;;;;5.90;5.28;;;22.00;57.50;;;;;;5114600;28;20658;-62
2021/06/06 03:24:32;;;;;;;7.60;6.75;;;22.00;57.50;;;;;;5114344;28;20200;-61
2021/06/06 03:26:57;;;;;;;7.95;6.65;;;22.00;57.50;;;;;;5114772;28;20177;-62
2021/06/06 03:29:27;;;;;;;6.95;6.30;;;22.10;57.60;;;;;;5114522;28;20180;-62
2021/06/06 03:32:04;;;;;;;6.28;5.65;;;22.00;57.50;;;;;;5113587;28;20185;-62
2021/06/06 03:34:29;;;;;;;7.38;6.30;;;22.00;57.50;;;;;;5114900;28;20177;-62
2021/06/06 03:36:55;;;;;;;7.70;6.55;;;22.00;57.50;;;;;;5114937;28;20739;-62
2021/06/06 03:39:26;;;;;;;6.75;6.03;;;22.00;57.50;;;;;;5115559;28;20173;-62
2021/06/06 03:41:52;;;;;;;6.78;6.07;;;22.00;57.50;;;;;;5115666;28;20169;-62
2021/06/06 03:44:17;;;;;;;7.95;6.68;;;22.00;57.50;;;;;;5114452;28;20245;-62
2021/06/06 03:46:43;;;;;;;9.43;6.57;;;22.00;57.50;;;;;;5115327;28;20169;-62
2021/06/06 03:49:09;;;;;;;6.68;6.05;;;22.00;57.50;;;;;;5115896;28;20185;-62
2021/06/06 03:51:35;;;;;;;7.38;6.10;;;22.00;57.60;;;;;;5114966;28;20184;-63
2021/06/06 03:54:01;;;;;;;7.68;6.45;;;22.00;57.60;;;;;;5115300;28;20169;-62
2021/06/06 03:56:26;;;;;;;8.13;6.50;;;22.00;57.60;;;;;;5115654;28;20215;-62
2021/06/06 03:58:52;;;;;;;7.30;6.50;;;22.00;57.60;;;;;;5114414;28;20536;-62
2021/06/06 04:01:17;;;;;;;8.30;6.47;;;22.00;57.60;;;;;;5115518;28;20176;-63
2021/06/06 04:03:44;;;;;;;8.00;6.85;;;21.90;57.50;;;;;;5115423;28;20184;-62
2021/06/06 04:06:09;;;;;;;7.95;6.95;;;21.90;57.50;;;;;;5114606;28;20263;-62
2021/06/06 04:08:35;;;;;;;9.73;7.22;;;21.90;57.50;;;;;;5115093;28;20268;-62
2021/06/06 04:11:00;;;;;;;12.85;8.00;;;21.90;57.50;;;;;;5115403;28;20272;-62
2021/06/06 04:13:26;;;;;;;8.18;7.10;;;21.90;57.50;;;;;;5114601;28;20240;-62
2021/06/06 04:15:51;;;;;;;8.85;6.88;;;21.90;57.50;;;;;;5114719;28;20229;-62
2021/06/06 04:18:22;;;;;;;9.30;7.32;;;21.90;57.60;;;;;;5115311;28;20654;-62
2021/06/06 04:20:49;;;;;;;7.35;6.07;;;21.90;57.50;;;;;;5114151;28;20185;-62
2021/06/06 04:23:14;;;;;;;9.38;7.50;;;21.90;57.50;;;;;;5115011;28;20176;-62
2021/06/06 04:25:40;;;;;;;7.47;6.47;;;21.90;57.60;;;;;;5114051;28;20173;-62
2021/06/06 04:28:06;;;;;;;8.88;6.50;;;21.90;57.60;;;;;;5114618;28;20565;-62
2021/06/06 04:30:31;;;;;;;6.55;5.85;;;21.90;57.50;;;;;;5114739;28;20230;-62
2021/06/06 04:32:57;;;;;;;9.20;6.82;;;21.90;57.60;;;;;;5114088;28;20226;-62
2021/06/06 04:35:22;;;;;;;7.70;6.72;;;21.90;57.50;;;;;;5114560;28;20220;-63
2021/06/06 04:37:48;;;;;;;10.15;7.03;;;21.90;57.50;;;;;;5114344;28;20176;-62
2021/06/06 04:40:14;;;;;;;7.78;6.90;;;21.90;57.50;;;;;;5114156;28;20169;-62
2021/06/06 04:42:40;;;;;;;7.50;6.80;;;21.90;57.50;;;;;;5114322;28;20169;-62
2021/06/06 04:45:06;;;;;;;9.57;7.57;;;21.90;57.40;;;;;;5114524;28;20176;-62
2021/06/06 04:47:32;;;;;;;8.82;6.82;;;21.90;57.40;;;;;;5113809;28;20177;-62
2021/06/06 04:49:57;;;;;;;9.65;7.18;;;21.90;57.50;;;;;;5114236;28;20177;-62
2021/06/06 04:52:23;;;;;;;8.82;6.18;;;21.90;57.50;;;;;;5114497;28;20173;-62
2021/06/06 04:54:48;;;;;;;9.38;7.18;;;21.80;57.50;;;;;;5112570;28;20161;-62
2021/06/06 04:57:14;;;;;;;7.93;6.63;;;21.90;57.40;;;;;;5114320;28;20238;-62
2021/06/06 04:59:42;;;;;;;8.68;6.35;;;21.90;57.60;;;;;;5114091;28;20169;-62
2021/06/06 05:02:09;;;;;;;7.95;6.45;;;21.80;57.50;;;;;;5113568;28;20173;-62
2021/06/06 05:04:35;;;;;;;9.07;7.55;;;21.90;57.60;;;;;;5114060;28;20180;-62
2021/06/06 05:07:01;;;;;;;8.05;7.25;;;21.80;57.50;;;;;;5114219;28;20515;-62
2021/06/06 05:09:26;;;;;;;8.43;7.13;;;21.80;57.50;;;;;;5113675;28;20208;-62
2021/06/06 05:11:52;;;;;;;7.47;6.60;;;21.80;57.50;;;;;;5113801;28;20219;-62
2021/06/06 05:14:17;;;;;;;7.43;5.90;;;21.80;57.50;;;;;;5114189;28;20161;-62
2021/06/06 05:16:43;;;;;;;9.45;6.65;;;21.90;57.60;;;;;;5112659;28;20236;-62
2021/06/06 05:19:08;;;;;;;7.72;6.18;;;21.80;57.60;;;;;;5113962;28;20260;-62
2021/06/06 05:21:34;;;;;;;7.85;7.00;;;21.80;57.60;;;;;;5113535;28;20260;-62
2021/06/06 05:24:00;;;;;;;8.07;6.50;;;21.90;57.60;;;;;;5112962;28;20260;-61
2021/06/06 05:26:25;;;;;;;7.72;6.50;;;21.80;57.60;;;;;;5113915;28;20257;-62
2021/06/06 05:28:51;;;;;;;8.25;7.00;;;21.80;57.60;;;;;;5113350;28;20230;-62
2021/06/06 05:31:17;;;;;;;8.55;6.65;;;21.90;57.50;;;;;;5113217;28;20188;-62
2021/06/06 05:33:43;;;;;;;8.93;6.40;;;21.80;57.50;;;;;;5113526;28;20190;-63
2021/06/06 05:36:08;;;;;;;8.52;6.70;;;21.80;57.50;;;;;;5112965;28;20352;-63
2021/06/06 05:38:34;;;;;;;10.32;7.60;;;21.80;57.50;;;;;;5113198;28;20527;-62
2021/06/06 05:41:00;;;;;;;8.98;6.95;;;21.80;57.50;;;;;;5113547;28;20181;-62
2021/06/06 05:43:26;;;;;;;10.63;7.78;;;21.80;57.50;;;;;;5113137;28;20180;-62
2021/06/06 05:45:52;;;;;;;8.07;6.25;;;21.80;57.80;;;;;;5112744;28;20185;-62
2021/06/06 05:48:18;;;;;;;9.75;6.68;;;21.80;57.50;;;;;;5113413;28;20169;-63
2021/06/06 05:50:51;;;;;;;7.63;6.50;;;21.80;57.60;;;;;;5112394;28;20213;-63
2021/06/06 05:53:20;;;;;;;9.02;6.85;;;21.80;57.50;;;;;;5113346;28;20206;-62
2021/06/06 05:55:45;;;;;;;9.45;6.80;;;21.80;57.50;;;;;;5112829;28;20674;-62
2021/06/06 05:58:11;;;;;;;7.80;6.57;;;21.80;57.50;;;;;;5112575;28;20184;-62
2021/06/06 06:00:38;;;;;;;7.50;6.80;;;21.80;57.50;;;;;;5112976;28;20183;-62
2021/06/06 06:03:05;;;;;;;7.40;6.40;;;21.80;57.50;;;;;;5113237;28;20184;-62
2021/06/06 06:05:30;;;;;;;8.55;7.32;;;21.80;57.50;;;;;;5112325;28;20718;-62
2021/06/06 06:07:56;;;;;;;7.28;6.55;;;21.70;57.40;;;;;;5112860;28;20293;-62
2021/06/06 06:10:24;;;;;;;7.50;6.80;;;21.80;57.50;;;;;;5113191;28;20217;-62
2021/06/06 06:12:50;;;;;;;8.63;5.78;;;21.80;57.50;;;;;;5112083;28;20173;-62
2021/06/06 06:15:16;;;;;;;8.55;7.18;;;21.80;57.50;;;;;;5112707;28;20232;-62
2021/06/06 06:17:42;;;;;;;8.95;7.03;;;21.80;57.50;;;;;;5112758;28;20548;-62
2021/06/06 06:20:09;;;;;;;7.68;6.88;;;21.80;57.60;;;;;;5112298;28;20250;-62
2021/06/06 06:22:34;;;;;;;8.32;7.45;;;21.80;57.50;;;;;;5112765;28;20192;-62
2021/06/06 06:25:00;;;;;;;7.85;6.82;;;21.80;57.50;;;;;;5112768;28;20169;-62
2021/06/06 06:27:25;;;;;;;7.50;6.75;;;21.80;57.50;;;;;;5112159;28;20228;-62
2021/06/06 06:29:51;;;;;;;9.05;7.03;;;21.70;57.50;;;;;;5112584;28;20642;-62
2021/06/06 06:32:16;;;;;;;9.23;6.88;;;21.70;57.50;;;;;;5112203;28;20205;-63
2021/06/06 06:34:42;;;;;;;7.05;6.35;;;21.70;57.60;;;;;;5112418;28;20221;-62
2021/06/06 06:37:08;;;;;;;6.60;5.90;;;21.70;57.60;;;;;;5112697;28;20292;-62
2021/06/06 06:39:33;;;;;;;8.05;6.07;;;21.80;57.80;;;;;;5111961;28;20169;-63
2021/06/06 06:41:59;;;;;;;9.27;5.80;;;21.70;57.70;;;;;;5112789;28;20183;-63
2021/06/06 06:44:24;;;;;;;7.25;6.47;;;21.80;57.80;;;;;;5112698;28;20189;-63
2021/06/06 06:46:50;;;;;;;6.47;5.85;;;21.80;57.80;;;;;;5111696;28;20516;-63
2021/06/06 06:49:15;;;;;;;6.10;5.50;;;21.70;57.70;;;;;;5112483;28;20520;-63
2021/06/06 06:51:41;;;;;;;7.72;5.80;;;21.70;57.70;;;;;;5112803;28;20184;-63
2021/06/06 06:54:06;;;;;;;6.57;5.88;;;21.80;58.40;;;;;;5112379;28;20627;-63
2021/06/06 06:56:32;;;;;;;6.40;5.80;;;21.80;57.80;;;;;;5112069;28;20713;-63
2021/06/06 06:58:57;;;;;;;6.72;6.03;;;21.80;57.80;;;;;;5112612;28;20181;-63
2021/06/06 07:01:23;;;;;;;7.35;6.20;;;21.80;57.80;;;;;;5111933;28;20185;-63
2021/06/06 07:03:49;;;;;;;5.93;5.35;;;21.80;57.90;;;;;;5112328;28;20650;-63
2021/06/06 07:06:14;;;;;;;7.05;5.78;;;21.80;57.90;;;;;;5111437;28;20177;-63
2021/06/06 07:08:42;;;;;;;6.15;5.40;;;21.80;57.90;;;;;;5111719;28;20256;-64
2021/06/06 07:11:09;;;;;;;6.38;5.70;;;21.80;57.90;;;;;;5112645;28;20177;-63
2021/06/06 07:13:35;;;;;;;6.30;5.60;;;21.80;57.90;;;;;;5112458;28;20173;-63
2021/06/06 07:16:01;;;;;;;9.95;7.47;;;21.80;58.00;;;;;;5111186;28;20225;-63
2021/06/06 07:18:26;;;;;;;13.23;9.68;;;21.80;58.00;;;;;;5113875;28;20181;-63
2021/06/06 07:20:54;;;;;;;9.77;7.90;;;21.80;58.00;;;;;;5115871;28;20170;-63
2021/06/06 07:23:20;;;;;;;8.35;6.85;;;21.80;58.60;;;;;;5115737;28;20188;-63
2021/06/06 07:25:46;;;;;;;8.70;6.97;;;21.70;58.00;;;;;;5115914;28;20230;-62
2021/06/06 07:28:14;;;;;;;7.82;6.93;;;21.80;58.10;;;;;;5116300;28;20169;-61
2021/06/06 07:30:46;;;;;;;12.60;6.88;;;21.80;58.10;;;;;;5115079;28;20539;-61
2021/06/06 07:33:11;;;;;;;7.78;6.55;;;21.80;58.10;;;;;;5116303;28;20173;-62
2021/06/06 07:35:37;;;;;;;9.55;5.90;;;21.80;58.30;;;;;;5115547;28;20209;-62
2021/06/06 07:38:02;;;;;;;7.80;6.05;;;21.90;58.10;;;;;;5115990;28;20184;-61
2021/06/06 07:40:30;;;;;;;10.48;6.05;;;21.90;58.00;;;;;;5116107;28;20177;-62
2021/06/06 07:42:56;;;;;;;6.63;5.38;;;21.90;58.10;;;;;;5115233;28;20642;-61
2021/06/06 07:45:22;;;;;;;8.15;6.03;;;21.90;58.10;;;;;;5115590;28;20169;-61
2021/06/06 07:47:48;;;;;;;8.35;5.53;;;21.90;58.80;;;;;;5115193;28;20619;-62
2021/06/06 07:50:17;;;;;;;6.97;5.60;;;21.90;58.20;;;;;;5115377;28;20295;-64
2021/06/06 07:52:42;;;;;;;10.30;5.97;;;21.90;58.10;;;;;;5115450;28;20179;-63
2021/06/06 07:55:10;;;;;;;8.27;5.95;;;22.00;58.30;;;;;;5115556;28;20172;-61
2021/06/06 07:57:36;;;;;;;6.53;5.88;;;22.00;58.20;;;;;;5114692;28;20178;-62
2021/06/06 08:00:01;;;;;;;5.82;5.28;;;22.00;58.10;;;;;;5115504;28;20175;-62
2021/06/06 08:02:27;;;;;;;6.35;5.75;;;22.00;58.20;;;;;;5115547;28;20578;-62
2021/06/06 08:04:52;;;;;;;5.43;4.88;;;22.00;58.20;;;;;;5114589;28;20670;-62
2021/06/06 08:07:18;;;;;;;5.97;5.38;;;22.00;58.10;;;;;;5115444;28;20184;-63
2021/06/06 08:09:43;;;;;;;6.15;5.60;;;22.10;58.10;;;;;;5115319;28;20170;-61
2021/06/06 08:12:09;;;;;;;5.65;5.15;;;22.10;58.10;;;;;;5114708;28;20177;-61
2021/06/06 08:14:35;;;;;;;6.45;5.20;;;22.10;58.10;;;;;;5114676;28;20177;-61
2021/06/06 08:17:00;;;;;;;6.35;5.72;;;22.10;58.10;;;;;;5115343;28;20239;-66
2021/06/06 08:19:26;;;;;;;7.20;5.40;;;22.10;58.40;;;;;;5114594;28;20173;-62
2021/06/06 08:21:51;;;;;;;7.82;5.22;;;22.00;58.30;;;;;;5114852;28;20242;-62
2021/06/06 08:24:17;;;;;;;5.53;4.40;;;22.10;58.30;;;;;;5115308;28;20169;-65
2021/06/06 08:26:42;;;;;;;6.80;5.15;;;22.00;58.40;;;;;;5114013;28;20643;-64
2021/06/06 08:29:08;;;;;;;5.47;4.82;;;22.00;58.30;;;;;;5114741;28;20639;-65
2021/06/06 08:31:35;;;;;;;5.72;4.97;;;22.10;58.30;;;;;;5115112;28;20169;-65
2021/06/06 08:34:00;;;;;;;6.65;5.03;;;22.10;58.20;;;;;;5114383;28;20173;-66
2021/06/06 08:36:29;;;;;;;5.47;4.97;;;22.20;58.10;;;;;;5115054;28;20572;-66
2021/06/06 08:38:55;;;;;;;4.70;4.30;;;22.20;58.10;;;;;;5114108;28;20173;-66
2021/06/06 08:41:22;;;;;;;6.18;4.63;;;22.20;58.20;;;;;;5114677;28;20188;-66
2021/06/06 08:43:56;;;;;;;6.00;4.78;;;22.30;58.30;;;;;;5113283;28;20252;-66
2021/06/06 08:46:23;;;;;;;5.57;4.53;;;22.30;58.10;;;;;;5113138;28;20176;-66
2021/06/06 08:48:49;;;;;;;7.72;4.82;;;22.30;58.30;;;;;;5114287;28;20181;-66
2021/06/06 08:51:39;;;;;;;6.10;4.45;;;22.30;58.10;;;;;;5113453;28;20177;-65
2021/06/06 08:54:36;;;;;;;7.03;4.53;;;22.30;58.10;;;;;;5112754;28;20173;-66
2021/06/06 08:57:05;;;;;;;5.30;4.50;;;22.30;58.30;;;;;;5113101;28;20679;-66
2021/06/06 08:59:32;;;;;;;5.63;4.20;;;22.30;58.10;;;;;;5114121;28;20209;-67
2021/06/06 09:02:18;;;;;;;7.97;4.60;;;22.40;58.20;;;;;;5111700;28;20185;-67
2021/06/06 09:04:44;;;;;;;7.10;4.75;;;22.40;58.40;;;;;;5112953;28;20176;-68
2021/06/06 09:07:40;;;;;;;5.03;4.40;;;22.40;58.30;;;;;;5113690;28;20656;-66
2021/06/06 09:10:18;;;;;;;5.32;4.55;;;22.40;58.20;;;;;;5105857;28;20181;-67
2021/06/06 09:12:44;;;;;;;4.35;3.97;;;22.40;58.20;;;;;;5112544;28;20259;-67
2021/06/06 09:15:11;;;;;;;5.57;4.53;;;22.40;58.40;;;;;;5113390;28;20312;-68
2021/06/06 09:17:40;;;;;;;5.13;4.68;;;22.40;58.30;;;;;;5114022;28;20173;-66
2021/06/06 09:20:21;;;;;;;6.47;4.75;;;22.40;58.20;;;;;;5114030;28;20260;-67
2021/06/06 09:22:47;;;;;;;5.05;4.55;;;22.50;58.30;;;;;;5113316;28;20634;-63
2021/06/06 09:25:33;;;;;;;4.45;4.05;;;22.50;58.40;;;;;;5113900;28;20173;-63
2021/06/06 09:28:12;;;;;;;5.80;4.38;;;22.50;58.50;;;;;;5113948;28;20173;-61
2021/06/06 09:30:39;;;;;;;4.82;4.32;;;22.50;58.50;;;;;;5113551;28;20173;-61
2021/06/06 09:33:21;;;;;;;7.18;4.80;;;22.50;58.40;;;;;;5113805;28;20229;-62
2021/06/06 09:36:19;;;;;;;5.30;4.28;;;22.50;58.30;;;;;;5111377;28;20216;-63
2021/06/06 09:38:45;;;;;;;4.78;4.25;;;22.50;58.20;;;;;;5110392;28;20702;-63
2021/06/06 09:41:26;;;;;;;5.95;4.53;;;22.50;58.20;;;;;;5111680;28;20177;-63
2021/06/06 09:44:15;;;;;;;4.97;4.07;;;22.50;58.20;;;;;;5092129;28;20186;-63
2021/06/06 09:47:07;;;;;;;5.05;4.55;;;22.50;58.20;;;;;;5102647;28;20169;-63
2021/06/06 09:49:44;;;;;;;14.27;4.20;;;22.50;58.20;;;;;;5101841;28;20662;-64
2021/06/06 09:52:14;;;;;;;4.03;3.72;;;22.50;58.20;;;;;;5112397;28;20181;-63
2021/06/06 09:54:41;;;;;;;4.95;4.43;;;22.40;58.40;;;;;;5112923;28;20197;-63
2021/06/06 09:57:26;;;;;;;4.35;3.95;;;22.40;58.20;;;;;;5111919;28;20209;-63
2021/06/06 09:59:52;;;;;;;5.65;3.85;;;22.40;58.20;;;;;;5096543;28;20226;-63
2021/06/06 10:02:30;;;;;;;7.32;3.92;;;22.40;58.20;;;;;;5112091;28;20173;-64
2021/06/06 10:05:11;;;;;;;4.50;4.07;;;22.40;58.20;;;;;;5111031;28;20509;-63
2021/06/06 10:07:40;;;;;;;3.92;3.55;;;22.40;58.20;;;;;;5113163;28;20177;-63
2021/06/06 10:10:16;;;;;;;4.53;4.13;;;22.40;58.20;;;;;;5112980;28;20173;-63
2021/06/06 10:12:44;;;;;;;4.28;3.88;;;22.40;58.20;;;;;;5112403;28;20594;-63
2021/06/06 10:15:20;;;;;;;4.03;3.63;;;22.40;58.10;;;;;;5095053;28;20229;-63
2021/06/06 10:17:59;;;;;;;6.28;4.05;;;22.50;58.00;;;;;;5111210;28;20237;-63
2021/06/06 10:20:33;;;;;;;4.22;3.72;;;22.50;58.10;;;;;;5111919;28;20582;-62
2021/06/06 10:23:07;;;;;;;7.55;4.35;;;22.50;58.10;;;;;;5111908;28;20176;-63
2021/06/06 10:25:46;;;;;;;4.38;3.63;;;22.50;58.10;;;;;;5110567;28;20260;-62
2021/06/06 10:28:13;;;;;;;5.32;3.67;;;22.50;58.00;;;;;;5112062;28;20235;-63
2021/06/06 10:30:48;;;;;;;4.45;3.83;;;22.50;57.90;;;;;;5111992;28;20184;-63
2021/06/06 10:33:42;;;;;;;10.70;3.65;;;22.50;57.90;;;;;;5112498;28;20278;-63
2021/06/06 10:36:07;;;;;;;5.10;3.55;;;22.60;58.00;;;;;;5109474;28;20212;-64
2021/06/06 10:38:35;;;;;;;6.05;3.78;;;22.60;58.00;;;;;;5112382;28;20172;-63
2021/06/06 10:41:15;;;;;;;7.72;4.28;;;22.50;57.80;;;;;;5111545;28;20192;-63
2021/06/06 10:43:57;;;;;;;4.80;3.47;;;22.60;57.90;;;;;;5111666;28;20252;-63
2021/06/06 10:46:47;;;;;;;3.90;3.55;;;22.60;57.90;;;;;;5110739;28;20653;-63
2021/06/06 10:49:22;;;;;;;3.83;3.42;;;22.60;57.90;;;;;;5112815;28;20169;-63
2021/06/06 10:52:01;;;;;;;6.47;3.45;;;22.60;57.90;;;;;;5112352;28;20289;-63
2021/06/06 10:54:37;;;;;;;3.50;3.10;;;22.60;57.90;;;;;;5115026;28;20180;-62
2021/06/06 10:57:12;;;;;;;5.57;3.70;;;22.60;57.80;;;;;;5115412;28;20224;-63
2021/06/06 10:59:50;;;;;;;5.82;3.35;;;22.60;57.90;;;;;;5115199;28;20176;-65
2021/06/06 11:02:37;;;;;;;4.32;3.42;;;22.60;57.80;;;;;;5116776;28;20176;-66
2021/06/06 11:05:22;;;;;;;4.22;3.80;;;22.60;57.70;;;;;;5115571;28;20210;-67
2021/06/06 11:07:47;;;;;;;4.68;3.33;;;22.70;57.70;;;;;;5115929;28;20230;-66
2021/06/06 11:10:27;;;;;;;4.40;3.80;;;22.60;57.60;;;;;;5116814;28;20576;-66
2021/06/06 11:12:56;;;;;;;3.92;3.55;;;22.60;57.70;;;;;;5116427;28;20169;-66
2021/06/06 11:15:54;;;;;;;4.07;3.55;;;22.60;57.70;;;;;;5114308;28;20231;-66
2021/06/06 11:18:21;;;;;;;6.05;3.90;;;22.60;57.70;;;;;;5116541;28;20646;-66
2021/06/06 11:20:56;;;;;;;5.32;3.45;;;22.70;57.60;;;;;;5114598;28;20177;-66
2021/06/06 11:23:36;;;;;;;4.20;2.97;;;22.70;57.60;;;;;;5116051;28;20172;-65
2021/06/06 11:26:17;;;;;;;4.55;3.03;;;22.60;57.60;;;;;;5115390;28;20173;-65
2021/06/06 11:28:42;;;;;;;4.03;3.05;;;22.70;57.60;;;;;;5114387;28;20172;-65
2021/06/06 11:31:26;;;;;;;3.42;3.13;;;22.70;57.50;;;;;;5114907;28;20180;-65
2021/06/06 11:34:04;;;;;;;3.95;3.03;;;22.70;57.50;;;;;;5115802;28;20173;-66
2021/06/06 11:36:59;;;;;;;3.70;2.88;;;22.80;57.50;;;;;;5114142;28;20204;-66
2021/06/06 11:39:36;;;;;;;3.13;2.92;;;22.80;57.40;;;;;;5116277;28;20193;-66
2021/06/06 11:42:03;;;;;;;3.45;3.13;;;22.80;57.40;;;;;;5115371;28;20173;-67
2021/06/06 11:44:41;;;;;;;3.78;3.05;;;22.80;57.40;;;;;;5116260;28;20699;-66
2021/06/06 11:47:15;;;;;;;4.22;3.50;;;22.80;57.40;;;;;;5114699;28;20615;-67
2021/06/06 11:50:07;;;;;;;3.47;2.95;;;22.80;57.40;;;;;;5113937;28;20630;-67
2021/06/06 11:52:50;;;;;;;3.80;3.08;;;22.90;57.40;;;;;;5114456;28;20177;-66
2021/06/06 11:55:15;;;;;;;3.80;3.00;;;22.90;57.30;;;;;;5114796;28;20176;-66
2021/06/06 11:57:50;;;;;;;4.50;3.13;;;22.90;57.40;;;;;;5115114;28;20173;-66
2021/06/06 12:00:53;;;;;;;4.32;3.10;;;22.80;57.40;;;;;;5114611;28;20172;-66
2021/06/06 12:03:27;;;;;;;3.22;2.92;;;22.80;57.60;;;;;;5052407;28;20171;-67
2021/06/06 12:05:59;;;;;;;3.47;3.10;;;22.80;57.60;;;;;;5106151;28;20185;-67
2021/06/06 12:08:41;;;;;;;3.65;3.30;;;22.80;57.50;;;;;;5115675;28;20184;-67
2021/06/06 12:11:22;;;;;;;3.08;2.67;;;22.80;57.60;;;;;;5114718;28;20226;-66
2021/06/06 12:13:49;;;;;;;5.18;3.40;;;22.80;57.60;;;;;;5115195;28;20181;-66
2021/06/06 12:16:21;;;;;;;3.20;2.90;;;22.80;57.70;;;;;;5113826;28;20233;-66
2021/06/06 12:18:59;;;;;;;3.35;3.05;;;22.90;57.50;;;;;;5114520;28;20538;-66
2021/06/06 12:21:25;;;;;;;3.22;3.03;;;22.80;57.60;;;;;;5115472;28;20195;-66
2021/06/06 12:24:05;;;;;;;4.22;2.78;;;22.80;57.70;;;;;;5114605;28;20631;-66
2021/06/06 12:26:35;;;;;;;3.08;2.83;;;22.70;57.70;;;;;;5115067;28;20181;-66
2021/06/06 12:29:00;;;;;;;3.17;2.80;;;22.70;57.70;;;;;;5114164;28;20176;-65
2021/06/06 12:31:33;;;;;;;3.00;2.72;;;22.70;57.70;;;;;;5113222;28;20173;-66
2021/06/06 12:34:31;;;;;;;2.95;2.75;;;22.70;57.80;;;;;;5115243;28;20196;-66
2021/06/06 12:37:08;;;;;;;3.00;2.80;;;22.60;57.90;;;;;;5080072;28;20610;-67
2021/06/06 12:39:35;;;;;;;3.00;2.80;;;22.60;58.00;;;;;;5113054;28;20172;-66
2021/06/06 12:42:01;;;;;;;2.67;2.47;;;22.60;58.10;;;;;;5114073;28;20225;-67
2021/06/06 12:44:29;;;;;;;3.05;2.85;;;22.60;58.10;;;;;;5114187;28;20169;-67
2021/06/06 12:46:59;;;;;;;2.50;2.30;;;22.60;58.10;;;;;;5112642;28;20252;-66
2021/06/06 12:49:35;;;;;;;2.95;2.65;;;22.60;58.10;;;;;;5114665;28;20181;-67
2021/06/06 12:52:17;;;;;;;3.47;2.60;;;22.60;58.10;;;;;;5114340;28;20234;-66
2021/06/06 12:54:42;;;;;;;2.97;2.78;;;22.60;58.10;;;;;;5113452;28;20209;-66
2021/06/06 12:57:18;;;;;;;3.45;2.83;;;22.70;58.00;;;;;;5113330;28;20693;-66
2021/06/06 12:59:44;;;;;;;2.80;2.60;;;22.70;57.80;;;;;;5112482;28;20267;-66
2021/06/06 13:02:18;;;;;;;2.88;2.67;;;22.80;57.70;;;;;;5113428;28;20272;-67
2021/06/06 13:04:44;;;;;;;3.08;2.88;;;22.90;57.50;;;;;;5114293;28;20310;-67